Flight Track Log - Related Links

Times and Time Zones

All times are in EDT time to prevent confusion due to time zone crossing. See the N544PS flight status page for this flight to view local times or setup timezone preferences in your user account.

Time Position Orientation Groundspeed Altitude Reporting Facility
EDT Latitude Longitude Course Direction KTS MPH feet Rate Location/Type
Tue 01:07:55 PM 42.2239 -83.5442 226° Southwest 174 200 1,500  Level Cleveland Center
Tue 01:08:25 PM 42.2025 -83.5742 226° Southwest 201 231 2,800 2,835 Climbing Cleveland Center
Tue 01:09:26 PM 42.2147 -83.6561 281° West 241 277 5,800 2,598 Climbing Cleveland Center
Tue 01:10:02 PM 42.2344 -83.7047 299° West 252 290 7,000 2,262 Climbing Cleveland Center
Tue 01:10:27 PM 42.2481 -83.7389 298° West 261 300 8,100 2,600 Climbing Cleveland Center
Tue 01:11:02 PM 42.2694 -83.7933 298° West 262 302 9,600 2,754 Climbing Cleveland Center
Tue 01:11:28 PM 42.2831 -83.8250 300° West 264 304 10,900 2,400 Climbing Cleveland Center
Tue 01:12:02 PM 42.3006 -83.8708 297° West 262 302 12,000 1,180 Climbing Cleveland Center
Tue 01:12:29 PM 42.3181 -83.9139 299° West 268 308 12,100 900 Climbing Cleveland Center
Tue 01:13:02 PM 42.3394 -83.9656 299° West 294 338 12,900 581 Climbing Cleveland Center
Tue 01:14:02 PM 42.4261 -83.9956 346° North 334 384 13,000 350 Climbing Cleveland Center
Tue 01:15:02 PM 42.4592 -84.0817 298° West 301 346 13,600 900 Climbing Cleveland Center
Tue 01:16:02 PM 42.4333 -84.1758 250° West 227 261 14,800 1,450 Climbing Cleveland Center
Tue 01:17:02 PM 42.4258 -84.2769 264° West 247 284 16,500 1,750 Climbing Cleveland Center
Tue 01:18:02 PM 42.4306 -84.3869 273° West 273 314 18,300 1,750 Climbing Cleveland Center
Tue 01:19:02 PM 42.4333 -84.4939 272° West 285 328 20,000 1,650 Climbing Cleveland Center
Tue 01:20:02 PM 42.4356 -84.6067 272° West 295 339 21,600 1,500 Climbing Cleveland Center
Tue 01:20:38 PM 42.4408 -84.6672 277° West 303 349 22,400 1,531 Climbing Chicago Center
Tue 01:21:40 PM 42.4428 -84.7756 271° West 295 339 24,100 1,790 Climbing Chicago Center
Tue 01:22:42 PM 42.4436 -84.8722 271° West 270 311 26,100 1,887 Climbing Chicago Center
Tue 01:23:44 PM 42.4469 -84.9606 273° West 244 281 28,000 1,839 Climbing Chicago Center
Tue 01:24:46 PM 42.4486 -85.0575 271° West 221 254 29,900 1,610 Climbing Chicago Center
Tue 01:25:47 PM 42.4500 -85.1381 271° West 216 249 31,300 1,366 Climbing Chicago Center
Tue 01:26:49 PM 42.4531 -85.2222 273° West 220 253 32,700 1,355 Climbing Chicago Center
Tue 01:27:51 PM 42.4533 -85.3106 270° West 230 265 34,100 1,306 Climbing Chicago Center
Tue 01:28:53 PM 42.4558 -85.3958 272° West 229 264 35,400 919 Climbing Chicago Center
Tue 01:29:55 PM 42.4569 -85.4839 271° West 231 266 36,000 290 Climbing Chicago Center
Tue 01:30:57 PM 42.4589 -85.5825 272° West 249 287 36,000  Level Chicago Center
Tue 01:31:59 PM 42.4608 -85.7111 271° West 278 320 36,000  Level Chicago Center
Tue 01:33:01 PM 42.4628 -85.8211 271° West 289 333 36,000  Level Chicago Center
Tue 01:34:03 PM 42.4636 -85.9311 271° West 292 336 36,000  Level Chicago Center
Tue 01:35:05 PM 42.4653 -86.0411 271° West 292 336 36,000 339 Level Chicago Center
Tue 01:36:07 PM 42.4711 -86.1492 274° West 290 334 36,700 677 Climbing Chicago Center
Tue 01:37:09 PM 42.4906 -86.2492 285° West 274 315 37,400 726 Climbing Chicago Center
Tue 01:38:11 PM 42.5069 -86.3483 283° West 271 312 38,200 823 Climbing Chicago Center
Tue 01:39:13 PM 42.5267 -86.4622 283° West 261 300 39,100 581 Climbing Chicago Center
Tue 01:40:15 PM 42.5422 -86.5611 282° West 262 302 39,400 336 Climbing Chicago Center
Tue 01:41:18 PM 42.5592 -86.6575 283° West 266 306 39,800 290 Climbing Chicago Center
Tue 01:42:19 PM 42.5750 -86.7575 282° West 271 312 40,000 97 Climbing Chicago Center
Tue 01:43:22 PM 42.5917 -86.8586 283° West 273 314 40,000  Level Chicago Center
Tue 01:44:24 PM 42.6083 -86.9617 282° West 278 320 40,000  Level Chicago Center
Tue 01:45:26 PM 42.6283 -87.0858 282° West 280 322 40,000  Level Chicago Center
Tue 01:46:28 PM 42.6450 -87.1903 282° West 283 326 40,000 48 Level Chicago Center
Tue 01:47:30 PM 42.6625 -87.2944 283° West 279 321 40,100 145 Climbing Chicago Center
Tue 01:48:32 PM 42.6769 -87.3944 281° West 277 319 40,300 194 Climbing Chicago Center
Tue 01:49:34 PM 42.6939 -87.4928 283° West 270 311 40,500 194 Climbing Chicago Center
Tue 01:50:36 PM 42.7117 -87.6064 282° West 266 306 40,700 244 Climbing Chicago Center
Tue 01:51:37 PM 42.7267 -87.7047 282° West 265 305 41,000 146 Climbing Chicago Center
Tue 01:52:39 PM 42.7419 -87.8011 282° West 261 300 41,000  Level Chicago Center
Tue 01:53:41 PM 42.7569 -87.8994 282° West 264 304 41,000  Level Chicago Center
Tue 01:54:43 PM 42.7725 -87.9997 282° West 268 308 41,000  Level Chicago Center
Tue 01:55:45 PM 42.7883 -88.1031 282° West 275 316 41,000  Level Chicago Center
Tue 01:56:47 PM 42.8061 -88.2225 282° West 275 316 41,000  Level Chicago Center
Tue 01:57:49 PM 42.8214 -88.3258 281° West 277 319 41,000  Level Chicago Center
Tue 01:58:52 PM 42.8367 -88.4264 282° West 272 313 41,000  Level Chicago Center
Tue 01:59:53 PM 42.8525 -88.5283 282° West 273 314 41,000  Level Chicago Center
Tue 02:00:56 PM 42.8661 -88.6261 281° West 264 304 41,000  Level Chicago Center
Tue 02:01:58 PM 42.8819 -88.7267 282° West 270 311 41,000  Level Chicago Center
Tue 02:03:00 PM 42.8975 -88.8419 280° West 265 305 41,000  Level Chicago Center
Tue 02:04:02 PM 42.9122 -88.9400 282° West 264 304 41,000  Level Chicago Center
Tue 02:05:04 PM 42.9264 -89.0383 281° West 265 305 41,000  Level Chicago Center
Tue 02:06:06 PM 42.9400 -89.1367 281° West 264 304 41,000  Level Chicago Center
Tue 02:07:07 PM 42.9553 -89.2347 282° West 264 304 41,000  Level Chicago Center
Tue 02:08:09 PM 42.9689 -89.3317 281° West 260 299 41,000  Level Chicago Center
Tue 02:09:11 PM 42.9839 -89.4464 280° West 261 300 41,000  Level Chicago Center
Tue 02:10:13 PM 42.9972 -89.5444 281° West 263 303 41,000  Level Chicago Center
Tue 02:11:15 PM 43.0117 -89.6436 281° West 265 305 41,000  Level Chicago Center
Tue 02:12:17 PM 43.0250 -89.7425 280° West 264 304 41,000  Level Chicago Center
Tue 02:13:19 PM 43.0381 -89.8433 280° West 268 308 41,000  Level Chicago Center
Tue 02:14:21 PM 43.0522 -89.9483 280° West 268 308 41,000  Level Chicago Center
Tue 02:15:23 PM 43.0669 -90.0503 281° West 275 316 41,000  Level Chicago Center
Tue 02:16:25 PM 43.0803 -90.1511 280° West 274 315 41,000  Level Chicago Center
Tue 02:17:26 PM 43.0919 -90.2525 279° West 274 315 41,000  Level Chicago Center
Tue 02:18:28 PM 43.1108 -90.3758 282° West 279 321 41,000  Level Chicago Center
Tue 02:19:30 PM 43.1244 -90.4778 280° West 276 318 41,000  Level Chicago Center
Tue 02:20:32 PM 43.1358 -90.5792 279° West 276 318 41,000  Level Chicago Center
Tue 02:21:34 PM 43.1500 -90.6836 281° West 282 325 41,000  Level Chicago Center
Tue 02:21:57 PM 43.1544 -90.7250 278° West 280 322 41,000  Level Minneapolis Center
Tue 02:22:59 PM 43.1683 -90.8292 280° West 281 323 41,000  Level Minneapolis Center
Tue 02:24:01 PM 43.1844 -90.9558 280° West 284 327 41,000  Level Minneapolis Center
Tue 02:25:03 PM 43.1978 -91.0622 280° West 286 329 41,000  Level Minneapolis Center
Tue 02:26:05 PM 43.2111 -91.1672 280° West 284 327 41,000  Level Minneapolis Center
Tue 02:27:07 PM 43.2242 -91.2731 280° West 284 327 41,000  Level Minneapolis Center
Tue 02:28:09 PM 43.2375 -91.3800 280° West 287 330 41,000  Level Minneapolis Center
Tue 02:29:11 PM 43.2522 -91.5067 279° West 285 328 41,000  Level Minneapolis Center
Tue 02:30:13 PM 43.2650 -91.6139 279° West 287 330 41,000  Level Minneapolis Center
Tue 02:31:15 PM 43.2783 -91.7217 280° West 288 331 41,000  Level Minneapolis Center
Tue 02:32:17 PM 43.2897 -91.8275 278° West 287 330 41,000  Level Minneapolis Center
Tue 02:33:18 PM 43.3025 -91.9342 279° West 287 330 41,000  Level Minneapolis Center
Tue 02:34:20 PM 43.3181 -92.0617 280° West 286 329 41,000  Level Minneapolis Center
Tue 02:35:22 PM 43.3300 -92.1697 279° West 289 333 41,000  Level Minneapolis Center
Tue 02:36:24 PM 43.3419 -92.2772 279° West 288 331 41,000  Level Minneapolis Center
Tue 02:37:26 PM 43.3544 -92.3853 279° West 289 333 41,000  Level Minneapolis Center
Tue 02:38:28 PM 43.3675 -92.4961 279° West 291 335 41,000  Level Minneapolis Center
Tue 02:39:30 PM 43.3814 -92.6247 278° West 292 336 41,000  Level Minneapolis Center
Tue 02:40:32 PM 43.3936 -92.7342 279° West 292 336 41,000  Level Minneapolis Center
Tue 02:41:34 PM 43.4050 -92.8428 278° West 291 335 41,000  Level Minneapolis Center
Tue 02:42:36 PM 43.4172 -92.9500 279° West 288 331 41,000  Level Minneapolis Center
Tue 02:43:38 PM 43.4283 -93.0592 278° West 291 335 41,000  Level Minneapolis Center
Tue 02:44:40 PM 43.4419 -93.1881 278° West 287 330 41,000  Level Minneapolis Center
Tue 02:45:41 PM 43.4542 -93.2961 279° West 288 331 41,000  Level Minneapolis Center
Tue 02:46:43 PM 43.4650 -93.4053 278° West 291 335 41,000  Level Minneapolis Center
Tue 02:47:45 PM 43.4769 -93.5136 279° West 289 333 41,000  Level Minneapolis Center
Tue 02:48:47 PM 43.4875 -93.6247 277° West 293 337 41,000  Level Minneapolis Center
Tue 02:49:49 PM 43.5017 -93.7547 279° West 290 334 41,000  Level Minneapolis Center
Tue 02:50:51 PM 43.5119 -93.8644 277° West 291 335 41,000  Level Minneapolis Center
Tue 02:51:53 PM 43.5219 -93.9758 277° West 293 337 41,000  Level Minneapolis Center
Tue 02:52:54 PM 43.5336 -94.0856 278° West 292 336 41,000  Level Minneapolis Center
Tue 02:53:56 PM 43.5433 -94.1903 277° West 292 336 41,000  Level Minneapolis Center
Tue 02:54:58 PM 43.5578 -94.3267 278° West 292 336 41,000  Level Minneapolis Center
Tue 02:56:00 PM 43.5675 -94.4378 277° West 292 336 41,000  Level Minneapolis Center
Tue 02:57:01 PM 43.5775 -94.5500 277° West 295 339 41,000  Level Minneapolis Center
Tue 02:58:03 PM 43.5886 -94.6614 278° West 295 339 41,000  Level Minneapolis Center
Tue 02:59:05 PM 43.5983 -94.7728 277° West 294 338 41,000  Level Minneapolis Center
Tue 03:00:07 PM 43.6086 -94.8850 277° West 295 339 41,000  Level Minneapolis Center
Tue 03:01:08 PM 43.6181 -94.9961 277° West 293 337 41,000  Level Minneapolis Center
Tue 03:02:10 PM 43.6303 -95.1311 277° West 295 339 41,000  Level Minneapolis Center
Tue 03:03:12 PM 43.6397 -95.2431 277° West 296 341 41,000  Level Minneapolis Center
Tue 03:04:13 PM 43.6492 -95.3553 277° West 294 338 41,000  Level Minneapolis Center
Tue 03:05:15 PM 43.6586 -95.4678 277° West 296 341 41,000  Level Minneapolis Center
Tue 03:06:17 PM 43.6686 -95.5794 277° West 294 338 41,000  Level Minneapolis Center
Tue 03:07:18 PM 43.6769 -95.6936 276° West 299 344 41,000  Level Minneapolis Center
Tue 03:08:20 PM 43.6867 -95.8064 277° West 297 342 41,000  Level Minneapolis Center
Tue 03:09:22 PM 43.6967 -95.9208 277° West 300 345 41,000  Level Minneapolis Center
Tue 03:10:36 PM 43.7086 -96.0814 276° West 299 344 41,000  Level Minneapolis Center
Tue 03:11:38 PM 43.7181 -96.1983 276° West 305 351 41,000  Level Minneapolis Center
Tue 03:12:39 PM 43.7272 -96.3156 276° West 305 351 41,000  Level Minneapolis Center
Tue 03:13:53 PM 43.7358 -96.4325 276° West 305 351 41,000  Level Minneapolis Center
Tue 03:14:55 PM 43.7467 -96.5742 276° West 308 354 41,000  Level Minneapolis Center
Tue 03:15:57 PM 43.7553 -96.6933 276° West 310 357 41,000  Level Minneapolis Center
Tue 03:16:58 PM 43.7642 -96.8117 276° West 309 356 41,000  Level Minneapolis Center
Tue 03:18:00 PM 43.7731 -96.9319 276° West 313 360 41,000  Level Minneapolis Center
Tue 03:19:02 PM 43.7828 -97.0739 275° West 311 358 41,000  Level Minneapolis Center
Tue 03:20:03 PM 43.7906 -97.1956 275° West 315 362 41,000  Level Minneapolis Center
Tue 03:21:05 PM 43.7997 -97.3142 276° West 312 359 41,000  Level Minneapolis Center
Tue 03:22:07 PM 43.8069 -97.4347 275° West 315 362 41,000  Level Minneapolis Center
Tue 03:23:08 PM 43.8156 -97.5544 276° West 314 361 41,000  Level Minneapolis Center
Tue 03:24:10 PM 43.8228 -97.6739 275° West 313 360 41,000  Level Minneapolis Center
Tue 03:25:12 PM 43.8314 -97.7942 276° West 315 362 41,000  Level Minneapolis Center
Tue 03:26:13 PM 43.8389 -97.9144 275° West 313 360 41,000 -222 Level Minneapolis Center
Tue 03:27:27 PM 43.8486 -98.0828 275° West 314 361 40,500 -662 Descending Minneapolis Center
Tue 03:28:29 PM 43.8569 -98.2039 275° West 317 365 39,500 -919 Descending Minneapolis Center
Tue 03:29:31 PM 43.8636 -98.3217 275° West 310 357 38,600 -774 Descending Minneapolis Center
Tue 03:30:33 PM 43.8697 -98.4389 274° West 307 353 37,900 -732 Descending Minneapolis Center
Tue 03:31:34 PM 43.8781 -98.5622 275° West 318 366 37,100 -732 Descending Minneapolis Center
Tue 03:32:36 PM 43.8825 -98.6650 273° West 330 380 36,400 -774 Descending Minneapolis Center
Tue 03:33:38 PM 43.8925 -98.8300 275° West 341 392 35,500 -823 Descending Minneapolis Center
Tue 03:34:40 PM 43.9000 -98.9606 275° West 341 392 34,700 -711 Descending Minneapolis Center
Tue 03:35:53 PM 43.9058 -99.0886 274° West 334 384 33,900 -844 Descending Minneapolis Center
Tue 03:36:55 PM 43.9158 -99.2717 274° West 339 390 32,800 -871 Descending Minneapolis Center
Tue 03:37:57 PM 43.9219 -99.4022 274° West 340 391 32,100 -629 Descending Minneapolis Center
Tue 03:38:59 PM 43.9275 -99.5353 273° West 343 395 31,500 -581 Descending Minneapolis Center
Tue 03:40:01 PM 43.9353 -99.6683 275° West 345 397 30,900 -629 Descending Minneapolis Center
Tue 03:41:03 PM 43.9414 -99.8042 274° West 350 403 30,200 -629 Descending Minneapolis Center
Tue 03:42:05 PM 43.9475 -99.9414 274° West 353 406 29,600 -537 Descending Minneapolis Center
Tue 03:43:06 PM 43.9522 -100.0508 273° West 355 409 29,100 -683 Descending Minneapolis Center
Tue 03:44:08 PM 43.9611 -100.2472 274° West 361 415 28,200 -677 Descending Minneapolis Center
Tue 03:45:10 PM 43.9661 -100.3906 273° West 368 423 27,700 -387 Descending Minneapolis Center
Tue 03:46:12 PM 43.9728 -100.5425 274° West 373 429 27,400 -339 Descending Minneapolis Center
Tue 03:47:14 PM 43.9781 -100.6800 273° West 374 430 27,000 -194 Descending Minneapolis Center
Tue 03:48:16 PM 43.9831 -100.8217 273° West 372 428 27,000  Level Minneapolis Center
Tue 03:49:18 PM 43.9883 -100.9622 273° West 369 425 27,000  Level Minneapolis Center
Tue 03:50:19 PM 43.9933 -101.1033 273° West 367 422 27,000  Level Minneapolis Center
Tue 03:51:21 PM 43.9986 -101.2417 273° West 364 419 27,000  Level Minneapolis Center
Tue 03:52:23 PM 44.0039 -101.4086 273° West 362 417 27,000  Level Minneapolis Center
Tue 03:52:43 PM 44.0028 -101.4339 267° West 357 411 27,000 -805 Level Denver Center
Tue 03:53:45 PM 44.0061 -101.5722 272° West 358 412 25,900 -1,355 Descending Denver Center
Tue 03:54:47 PM 44.0100 -101.7381 272° West 357 411 24,200 -1,500 Descending Denver Center
Tue 03:55:49 PM 44.0147 -101.8717 273° West 350 403 22,800 -1,317 Descending Denver Center
Tue 03:56:09 PM 44.0206 -101.9156 280° West 346 398 22,400 -1,377 Descending Denver Center
Tue 03:56:50 PM 44.0192 -102.0047 269° West 347 399 21,400 -1,343 Descending Denver Center
Tue 03:57:16 PM 44.0250 -102.0650 278° West 342 394 20,900 -1,258 Descending Denver Center
Tue 03:57:52 PM 44.0247 -102.1372 270° West 344 396 20,100 -1,600 Descending Denver Center
Tue 03:58:16 PM 44.0289 -102.1994 275° West 339 390 19,300 -1,742 Descending Denver Center
Tue 03:58:54 PM 44.0275 -102.2628 268° West 334 384 18,300 -1,770 Descending Denver Center
Tue 03:59:17 PM 44.0317 -102.3139 276° West 315 362 17,500 -2,063 Descending Denver Center
Tue 03:59:58 PM 44.0314 -102.3828 270° West 317 365 16,100 -2,656 Descending Denver Center
Tue 04:00:18 PM 44.0336 -102.4375 273° West 306 352 14,800 -2,613 Descending Denver Center
Tue 04:01:00 PM 44.0331 -102.5194 269° West 302 348 13,400 -2,000 Descending Denver Center
Tue 04:01:18 PM 44.0325 -102.5558 269° West 294 338 12,800 -1,645 Descending Denver Center
Tue 04:02:02 PM 44.0308 -102.6311 268° West 293 337 11,700 -1,672 Descending Denver Center
Tue 04:02:19 PM 44.0311 -102.6594 271° West 285 328 11,100 -2,164 Descending Denver Center
Tue 04:03:03 PM 44.0369 -102.7367 276° West 279 321 9,500 -2,200 Descending Denver Center
Tue 04:03:19 PM 44.0411 -102.7686 280° West 276 318 8,900 -871 Descending Denver Center
Tue 04:04:05 PM 44.0481 -102.8369 278° West 274 315 8,600 -1,180 Descending Denver Center
Tue 04:04:20 PM 44.0525 -102.8597 285° West 253 291 7,700 -1,658 Descending Denver Center
Tue 04:05:21 PM 44.0656 -102.9475 282° West 221 254 6,500 -1,438 Descending Denver Center
Tue 04:06:21 PM 44.0747 -103.0097 282° West 178 205 4,800 -1,240 Descending Denver Center
Tue 04:07:22 PM 44.0742 -103.0631 269° West 131 151 4,000 -787 Descending Denver Center
Tue 04:09:00 PM 44.0453 -103.0574 180° South  Level Estimated

Login

Don't have an account? Register now (free) for customized features, flight alerts, and more!